Time;durP1;ratioP1;P1;durP2;ratioP2;P2;SDS_P1;SDS_P2;PMS_P1;PMS_P2;Temp;Humidity;BMP_temperature;BMP_pressure;BME280_temperature;BME280_humidity;BME280_pressure;Samples;Min_cycle;Max_cycle;Signal;HPM_P1;HPM_P2
2022/07/06 00:01:23;;;;;;;15.45;11.95;;;;;;;19.27;100.00;94957.13;4995536;28;20056;-68
2022/07/06 00:03:50;;;;;;;13.93;10.30;;;;;;;19.26;100.00;94955.56;5000668;28;20038;-69
2022/07/06 00:06:25;;;;;;;16.55;11.00;;;;;;;19.26;100.00;94950.28;4998029;28;20144;-69
2022/07/06 00:08:52;;;;;;;12.70;10.32;;;;;;;19.23;100.00;94944.75;5000147;28;20050;-69
2022/07/06 00:11:36;;;;;;;18.40;10.63;;;;;;;19.24;100.00;94936.56;5002483;28;20558;-69
2022/07/06 00:14:37;;;;;;;16.90;11.68;;;;;;;19.21;100.00;94931.88;4998550;28;20120;-69
2022/07/06 00:17:04;;;;;;;14.63;11.23;;;;;;;19.14;100.00;94933.25;4989223;28;20054;-69
2022/07/06 00:19:31;;;;;;;15.10;10.90;;;;;;;19.13;100.00;94939.63;5009237;28;20042;-70
2022/07/06 00:22:11;;;;;;;18.40;10.90;;;;;;;19.14;100.00;94947.28;4998561;28;20133;-69
2022/07/06 00:24:40;;;;;;;17.33;12.35;;;;;;;19.03;100.00;94922.84;4998965;28;20080;-68
2022/07/06 00:27:07;;;;;;;16.58;11.38;;;;;;;19.21;100.00;94937.16;5002593;28;20531;-66
2022/07/06 00:29:37;;;;;;;16.70;11.98;;;;;;;19.20;100.00;94926.88;5004002;28;20052;-66
2022/07/06 00:32:04;;;;;;;16.50;12.05;;;;;;;19.17;100.00;94920.28;5014116;28;20053;-68
2022/07/06 00:34:31;;;;;;;18.02;11.25;;;;;;;19.17;100.00;94925.56;5001450;28;20050;-66
2022/07/06 00:37:44;;;;;;;19.33;12.65;;;;;;;19.16;100.00;94929.28;4992533;28;20060;-67
2022/07/06 00:40:38;;;;;;;20.23;13.43;;;;;;;19.11;100.00;94942.53;4995792;28;20050;-67
2022/07/06 00:43:05;;;;;;;20.42;12.90;;;;;;;18.87;100.00;94948.63;4993061;28;20188;-67
2022/07/06 00:45:32;;;;;;;21.10;12.13;;;;;;;18.78;100.00;94945.00;5000723;28;20446;-67
2022/07/06 00:47:59;;;;;;;18.58;13.10;;;;;;;18.48;100.00;94941.56;4998618;28;20132;-67
2022/07/06 00:50:28;;;;;;;18.20;13.07;;;;;;;18.25;100.00;94943.06;4996455;28;20030;-67
2022/07/06 00:53:03;;;;;;;18.58;13.15;;;;;;;18.38;100.00;94952.19;5000669;28;20034;-69
2022/07/06 00:56:15;;;;;;;27.77;14.35;;;;;;;18.38;100.00;94949.56;4996175;28;20239;-69
2022/07/06 00:58:55;;;;;;;23.40;14.75;;;;;;;18.37;100.00;94945.38;4996583;28;20042;-69
2022/07/06 01:01:28;;;;;;;23.60;15.20;;;;;;;18.40;100.00;94939.53;4998774;28;20073;-69
2022/07/06 01:04:20;;;;;;;23.42;14.27;;;;;;;18.39;100.00;94927.41;4974036;28;20147;-69
2022/07/06 01:06:48;;;;;;;21.48;13.45;;;;;;;18.39;100.00;94927.41;4997222;28;20055;-69
2022/07/06 01:09:16;;;;;;;22.25;15.40;;;;;;;18.31;100.00;94920.09;5000686;28;21428;-68
2022/07/06 01:11:43;;;;;;;19.80;13.82;;;;;;;18.37;100.00;94919.00;4987187;28;20141;-69
2022/07/06 01:14:13;;;;;;;25.50;15.18;;;;;;;18.40;100.00;94910.53;4996723;28;20042;-69
2022/07/06 01:16:41;;;;;;;18.17;13.13;;;;;;;18.41;100.00;94903.41;5013517;28;20056;-69
2022/07/06 01:19:08;;;;;;;21.35;14.00;;;;;;;18.45;100.00;94905.19;4995207;28;20038;-69
2022/07/06 01:21:45;;;;;;;19.30;14.23;;;;;;;18.37;100.00;94911.09;5000991;28;20049;-73
2022/07/06 01:24:12;;;;;;;21.05;12.88;;;;;;;18.32;100.00;94911.13;4996806;28;20038;-69
2022/07/06 01:26:39;;;;;;;18.10;13.43;;;;;;;18.32;100.00;94913.75;4998543;28;20439;-69
2022/07/06 01:30:04;;;;;;;18.58;12.93;;;;;;;18.33;100.00;94907.44;4962214;28;20668;-69
2022/07/06 01:32:35;;;;;;;20.92;13.63;;;;;;;18.27;100.00;94903.25;4998040;28;20041;-68
2022/07/06 01:35:50;;;;;;;20.42;13.77;;;;;;;18.28;100.00;94895.06;4986597;28;20439;-68
2022/07/06 01:38:58;;;;;;;18.38;12.45;;;;;;;18.30;100.00;94897.44;4999016;28;20054;-69
2022/07/06 01:41:25;;;;;;;17.60;13.15;;;;;;;18.18;100.00;94904.94;4993090;28;20042;-68
2022/07/06 01:43:53;;;;;;;25.42;13.43;;;;;;;18.09;100.00;94902.88;4995047;28;20041;-68
2022/07/06 01:46:20;;;;;;;18.30;13.73;;;;;;;18.02;100.00;94901.63;4993914;28;20049;-68
2022/07/06 01:48:48;;;;;;;24.35;16.00;;;;;;;18.08;100.00;94906.59;4988140;28;20112;-68
2022/07/06 01:51:47;;;;;;;25.45;15.63;;;;;;;18.01;100.00;94916.66;4985278;28;20038;-68
2022/07/06 01:54:14;;;;;;;19.60;13.20;;;;;;;17.93;100.00;94909.31;4995431;28;20053;-68
2022/07/06 01:56:41;;;;;;;20.98;14.52;;;;;;;17.89;100.00;94913.56;5005632;28;20052;-69
2022/07/06 01:59:20;;;;;;;23.00;15.30;;;;;;;17.92;100.00;94915.66;5004356;28;20069;-68
2022/07/06 02:01:47;;;;;;;22.75;14.40;;;;;;;17.87;100.00;94920.97;4999039;28;20519;-69
2022/07/06 02:04:14;;;;;;;21.88;13.95;;;;;;;17.90;100.00;94920.44;4999377;28;20156;-69
2022/07/06 02:06:41;;;;;;;27.45;15.25;;;;;;;17.85;100.00;94923.06;4994157;28;20061;-68
2022/07/06 02:09:08;;;;;;;27.08;16.27;;;;;;;17.86;100.00;94927.28;5000033;28;20038;-68
2022/07/06 02:11:35;;;;;;;26.60;15.45;;;;;;;17.84;100.00;94937.28;5014084;28;20058;-68
2022/07/06 02:14:02;;;;;;;25.08;14.32;;;;;;;17.73;100.00;94932.06;5002345;28;20049;-68
2022/07/06 02:16:42;;;;;;;21.63;15.23;;;;;;;17.65;100.00;94930.03;4999906;28;20073;-68
2022/07/06 02:20:27;;;;;;;20.27;15.07;;;;;;;17.70;100.00;94937.91;4996717;28;21543;-68
2022/07/06 02:22:54;;;;;;;24.92;14.55;;;;;;;17.70;100.00;94942.38;4998255;28;20049;-68
2022/07/06 02:25:21;;;;;;;23.50;15.45;;;;;;;17.61;100.00;94931.66;5013148;28;20675;-68
2022/07/06 02:27:49;;;;;;;22.52;14.07;;;;;;;17.64;100.00;94938.97;4997840;28;20139;-68
2022/07/06 02:30:16;;;;;;;25.67;15.90;;;;;;;17.67;100.00;94943.72;4996922;28;20044;-68
2022/07/06 02:32:44;;;;;;;23.35;16.05;;;;;;;17.58;100.00;94937.44;5026658;28;20041;-67
2022/07/06 02:35:11;;;;;;;22.50;16.13;;;;;;;17.60;100.00;94935.31;4993048;28;20046;-68
2022/07/06 02:37:39;;;;;;;22.50;15.95;;;;;;;17.60;100.00;94937.97;4991912;28;20052;-67
2022/07/06 02:40:07;;;;;;;24.08;15.65;;;;;;;17.59;100.00;94936.38;5016342;28;20594;-67
2022/07/06 02:42:40;;;;;;;21.67;14.90;;;;;;;17.58;100.00;94934.81;4996720;28;20050;-67
2022/07/06 02:45:09;;;;;;;19.85;13.23;;;;;;;17.53;100.00;94921.69;5012879;28;20543;-67
2022/07/06 02:47:37;;;;;;;21.13;15.57;;;;;;;17.55;100.00;94936.13;5005807;28;20049;-67
2022/07/06 02:50:50;;;;;;;25.67;15.00;;;;;;;17.56;100.00;94936.94;4954591;28;20050;-67
2022/07/06 02:56:29;;;;;;;23.50;15.50;;;;;;;17.61;100.00;94944.81;4992013;28;20411;-67
2022/07/06 02:58:57;;;;;;;22.40;15.45;;;;;;;17.61;100.00;94944.81;4995877;28;20050;-68
2022/07/06 03:01:24;;;;;;;25.13;15.57;;;;;;;17.64;100.00;94938.97;4993391;28;20070;-68
2022/07/06 03:03:51;;;;;;;23.40;15.52;;;;;;;17.66;100.00;94936.88;5004149;28;20074;-68
2022/07/06 03:06:21;;;;;;;23.30;14.38;;;;;;;17.66;100.00;94936.09;5016830;28;20061;-68
2022/07/06 03:09:20;;;;;;;19.85;14.00;;;;;;;17.69;100.00;94941.59;5022677;28;20581;-68
2022/07/06 03:11:47;;;;;;;19.05;14.32;;;;;;;17.70;100.00;94937.91;5002765;28;20058;-68
2022/07/06 03:14:20;;;;;;;21.27;14.15;;;;;;;17.72;100.00;94945.53;5015043;28;20041;-67
2022/07/06 03:16:52;;;;;;;22.60;14.63;;;;;;;17.73;100.00;94947.88;4994577;28;20148;-67
2022/07/06 03:19:26;;;;;;;22.88;15.55;;;;;;;17.75;100.00;94939.72;5001673;28;20046;-68
2022/07/06 03:21:53;;;;;;;21.95;14.73;;;;;;;17.73;100.00;94945.25;5002619;28;20103;-67
2022/07/06 03:24:28;;;;;;;21.70;14.90;;;;;;;17.73;100.00;94942.63;5011510;28;20052;-68
2022/07/06 03:27:01;;;;;;;;;;;;;;;17.70;100.00;94937.91;5003616;28;20046;-68
2022/07/06 03:29:28;;;;;;;20.27;14.25;;;;;;;17.63;100.00;94942.69;4997629;28;20398;-67
2022/07/06 03:31:55;;;;;;;22.83;14.00;;;;;;;17.62;100.00;94946.38;5000773;28;20266;-67
2022/07/06 03:34:28;;;;;;;24.02;14.32;;;;;;;17.60;100.00;94948.50;4996526;28;20046;-67
2022/07/06 03:37:08;;;;;;;22.83;15.60;;;;;;;17.59;100.00;94952.19;5017768;28;20105;-67
2022/07/06 03:39:37;;;;;;;20.45;14.43;;;;;;;17.58;100.00;94955.88;5010635;28;20076;-68
2022/07/06 03:42:05;;;;;;;22.40;14.35;;;;;;;17.58;100.00;94948.75;5001488;28;20053;-68
2022/07/06 03:44:49;;;;;;;22.48;13.07;;;;;;;17.58;100.00;94955.88;5014485;28;20496;-67
2022/07/06 03:47:21;;;;;;;21.23;13.68;;;;;;;17.60;100.00;94959.03;5004590;28;20050;-68
2022/07/06 03:50:00;;;;;;;17.80;13.65;;;;;;;17.57;100.00;94954.28;5016733;28;20105;-68
2022/07/06 03:52:40;;;;;;;21.42;13.50;;;;;;;17.59;100.00;94957.44;5016125;28;20050;-67
2022/07/06 03:55:10;;;;;;;20.83;13.30;;;;;;;17.57;100.00;94954.28;4997936;28;20042;-67
2022/07/06 03:57:40;;;;;;;19.48;12.95;;;;;;;17.58;100.00;94950.63;5007816;28;20045;-66
2022/07/06 04:00:22;;;;;;;16.95;12.75;;;;;;;17.57;100.00;94949.03;4997395;28;20496;-66
2022/07/06 04:02:58;;;;;;;20.52;12.95;;;;;;;17.60;100.00;94959.03;5016600;28;20150;-66
2022/07/06 04:05:31;;;;;;;19.00;13.25;;;;;;;17.66;100.00;94957.94;4999018;28;20038;-67
2022/07/06 04:08:05;;;;;;;20.17;13.15;;;;;;;17.71;100.00;94960.53;5002351;28;20060;-67
2022/07/06 04:10:51;;;;;;;17.88;12.43;;;;;;;17.73;100.00;94955.78;5028694;28;20049;-67
2022/07/06 04:13:18;;;;;;;17.35;12.82;;;;;;;17.71;100.00;94955.28;5014698;28;20082;-66
2022/07/06 04:15:45;;;;;;;18.15;12.82;;;;;;;17.70;100.00;94958.97;5002082;28;20135;-67
2022/07/06 04:18:12;;;;;;;25.70;13.43;;;;;;;17.67;100.00;94959.53;4999016;28;20088;-67
2022/07/06 04:20:47;;;;;;;19.80;12.48;;;;;;;17.67;100.00;94970.06;4996483;28;20162;-67
2022/07/06 04:23:36;;;;;;;18.65;13.00;;;;;;;17.68;100.00;94966.38;5019320;28;20046;-66
2022/07/06 04:26:06;;;;;;;25.15;13.60;;;;;;;17.73;100.00;94968.94;5005765;28;20050;-67
2022/07/06 04:28:48;;;;;;;16.77;12.57;;;;;;;17.74;100.00;94975.81;4987329;28;20116;-68
2022/07/06 04:31:16;;;;;;;17.83;12.68;;;;;;;17.67;100.00;94975.31;4996565;28;20054;-68
2022/07/06 04:33:47;;;;;;;19.13;12.00;;;;;;;17.68;100.00;94976.91;4995201;28;20046;-68
2022/07/06 04:36:14;;;;;;;22.33;14.35;;;;;;;17.69;100.00;94981.09;5000003;28;20049;-68
2022/07/06 04:38:49;;;;;;;25.42;12.45;;;;;;;17.60;100.00;94989.84;4995937;28;20129;-67
2022/07/06 04:41:16;;;;;;;22.67;13.70;;;;;;;17.37;100.00;94992.03;4991702;28;20045;-68
2022/07/06 04:43:43;;;;;;;18.90;12.80;;;;;;;17.31;100.00;94987.88;5015507;28;20050;-68
2022/07/06 04:46:14;;;;;;;24.10;14.63;;;;;;;17.34;100.00;94988.13;5000602;28;20526;-68
2022/07/06 04:48:44;;;;;;;26.33;14.95;;;;;;;17.39;100.00;94990.72;5017397;28;20335;-68
2022/07/06 04:51:36;;;;;;;22.02;14.73;;;;;;;17.42;100.00;94991.25;5011809;28;20305;-68
2022/07/06 04:54:05;;;;;;;24.30;15.57;;;;;;;17.46;100.00;94989.66;4998406;28;20068;-68
2022/07/06 04:56:33;;;;;;;25.30;15.75;;;;;;;17.48;100.00;94998.06;5015618;28;20061;-68
2022/07/06 04:59:02;;;;;;;28.10;16.00;;;;;;;17.52;100.00;94999.09;5013015;28;20729;-68
2022/07/06 05:01:28;;;;;;;23.73;14.88;;;;;;;17.63;100.00;95000.63;4994287;28;20049;-68
2022/07/06 05:03:59;;;;;;;30.40;17.20;;;;;;;17.74;100.00;95004.00;4997335;28;20045;-68
2022/07/06 05:07:12;;;;;;;24.90;15.18;;;;;;;17.85;100.00;95012.66;4994382;28;20057;-68
2022/07/06 05:09:45;;;;;;;32.58;17.13;;;;;;;17.90;100.00;95020.56;5001318;28;20863;-68
2022/07/06 05:12:58;;;;;;;24.15;14.73;;;;;;;17.69;100.00;94999.53;4935515;28;20055;-69
2022/07/06 05:15:33;;;;;;;25.55;15.48;;;;;;;17.81;100.00;95027.41;4994969;28;20042;-68
2022/07/06 05:18:15;;;;;;;28.90;15.63;;;;;;;17.70;100.00;95027.47;5021972;28;20057;-68
2022/07/06 05:20:44;;;;;;;21.10;13.70;;;;;;;17.77;100.00;95033.22;5015236;28;20346;-69
2022/07/06 05:23:12;;;;;;;25.45;14.60;;;;;;;17.78;100.00;95034.78;4995418;28;20045;-68
2022/07/06 05:25:39;;;;;;;25.63;15.15;;;;;;;17.81;100.00;95027.41;5018129;28;20042;-68
2022/07/06 05:28:07;;;;;;;23.38;16.15;;;;;;;17.94;100.00;95021.56;5001142;28;20049;-68
2022/07/06 05:30:34;;;;;;;19.75;14.90;;;;;;;18.19;100.00;95028.53;5000290;28;20431;-68
2022/07/06 05:33:09;;;;;;;18.55;12.77;;;;;;;18.39;100.00;95032.88;5002142;28;20057;-68
2022/07/06 05:35:59;;;;;;;16.63;9.55;;;;;;;18.45;100.00;95042.31;5006496;28;20478;-68
2022/07/06 05:38:28;;;;;;;13.80;10.00;;;;;;;18.47;100.00;95045.47;4983813;28;20141;-69
2022/07/06 05:40:55;;;;;;;16.63;11.63;;;;;;;18.54;100.00;95045.16;5003031;28;20583;-68
2022/07/06 05:43:54;;;;;;;16.73;10.82;;;;;;;18.64;100.00;95044.31;5002378;28;20050;-68
2022/07/06 05:46:31;;;;;;;17.83;11.88;;;;;;;18.73;100.00;95042.66;5001552;28;20135;-68
2022/07/06 05:52:17;;;;;;;16.15;11.15;;;;;;;18.98;100.00;95038.22;4997274;28;20038;-68
2022/07/06 05:54:44;;;;;;;18.10;11.70;;;;;;;19.02;100.00;95047.16;4998793;28;20100;-68
2022/07/06 05:57:18;;;;;;;18.52;10.95;;;;;;;19.13;100.00;95035.44;5000433;28;20045;-68
2022/07/06 05:59:44;;;;;;;16.55;11.90;;;;;;;19.34;100.00;95051.88;5014647;28;20119;-68
2022/07/06 06:02:11;;;;;;;15.80;11.35;;;;;;;19.44;100.00;95053.59;4999312;28;20077;-68
2022/07/06 06:04:39;;;;;;;15.82;10.57;;;;;;;19.40;100.00;95055.22;5020175;28;20363;-68
2022/07/06 06:07:06;;;;;;;15.98;10.70;;;;;;;19.45;100.00;95057.81;4995581;28;20137;-68
2022/07/06 06:09:39;;;;;;;19.35;11.52;;;;;;;19.42;100.00;95058.38;5020078;28;20050;-68
2022/07/06 06:12:07;;;;;;;14.13;10.68;;;;;;;19.54;100.00;95056.13;4997894;28;20052;-66
2022/07/06 06:14:48;;;;;;;14.77;9.35;;;;;;;19.61;100.00;95051.28;5001936;28;20467;-65
2022/07/06 06:17:24;;;;;;;19.83;10.52;;;;;;;19.72;100.00;95048.53;5018318;28;20050;-67
2022/07/06 06:19:51;;;;;;;13.60;9.98;;;;;;;19.89;100.00;95048.88;5001179;28;20121;-67
2022/07/06 06:22:17;;;;;;;13.70;10.32;;;;;;;19.94;100.00;95043.50;5001862;28;20538;-67
2022/07/06 06:24:56;;;;;;;22.85;11.63;;;;;;;19.99;100.00;95048.75;5000710;28;20046;-67
2022/07/06 06:27:56;;;;;;;15.57;9.75;;;;;;;20.02;100.00;95042.88;5002335;28;20152;-66
2022/07/06 06:30:39;;;;;;;14.02;10.05;;;;;;;20.14;100.00;95041.66;5000657;28;20434;-69
2022/07/06 06:33:45;;;;;;;15.30;9.40;;;;;;;20.27;100.00;95035.66;5005546;28;20042;-69
2022/07/06 06:36:12;;;;;;;20.48;11.60;;;;;;;20.29;100.00;95032.72;5006199;28;20056;-67
2022/07/06 06:39:21;;;;;;;32.63;11.38;;;;;;;20.57;100.00;95047.63;5007040;28;20198;-67
2022/07/06 06:41:51;;;;;;;15.52;10.45;;;;;;;20.70;100.00;95056.72;5007391;28;20507;-71
2022/07/06 06:44:24;;;;;;;23.50;10.70;;;;;;;20.67;100.00;95049.38;5000047;28;20107;-67
2022/07/06 06:46:54;;;;;;;18.10;10.73;;;;;;;20.57;100.00;95049.50;5006893;28;20046;-69
2022/07/06 06:49:21;;;;;;;15.95;10.38;;;;;;;20.52;100.00;95046.94;5007331;28;20037;-69
2022/07/06 06:51:48;;;;;;;19.00;11.18;;;;;;;20.44;100.00;95046.50;4999311;28;20046;-68
2022/07/06 06:54:15;;;;;;;15.98;10.02;;;;;;;20.53;100.00;95045.88;5003807;28;20046;-69
2022/07/06 06:56:42;;;;;;;17.83;10.52;;;;;;;20.68;100.00;95037.72;5004702;28;20435;-69
2022/07/06 06:59:09;;;;;;;14.10;10.80;;;;;;;20.88;100.00;95035.81;5006237;28;20054;-68
2022/07/06 07:01:44;;;;;;;12.43;9.75;;;;;;;21.11;100.00;95048.09;5002260;28;20053;-67
2022/07/06 07:04:13;;;;;;;16.80;9.48;;;;;;;21.10;100.00;95038.56;4997184;28;20527;-68
2022/07/06 07:06:49;;;;;;;13.90;9.80;;;;;;;21.17;100.00;95046.16;5004567;28;20045;-71
2022/07/06 07:09:26;;;;;;;13.95;9.48;;;;;;;21.20;100.00;95051.63;4997418;28;20038;-69
2022/07/06 07:11:54;;;;;;;13.80;8.35;;;;;;;21.28;100.00;95049.41;4996690;28;20049;-68
2022/07/06 07:14:27;;;;;;;19.95;9.88;;;;;;;21.22;100.00;95047.94;5005461;28;20035;-68
2022/07/06 07:17:11;;;;;;;12.77;9.33;;;;;;;21.20;100.00;95051.63;5000414;28;20049;-67
2022/07/06 07:19:38;;;;;;;13.40;8.98;;;;;;;21.29;100.00;95048.31;5001417;28;20476;-67
2022/07/06 07:22:11;;;;;;;15.57;8.10;;;;;;;21.41;100.00;95056.59;5005645;28;20068;-68
2022/07/06 07:24:38;;;;;;;11.60;8.27;;;;;;;21.55;100.00;95056.59;5001323;28;20046;-68
2022/07/06 07:27:05;;;;;;;11.77;9.15;;;;;;;21.54;100.00;95052.38;5003879;28;20142;-69
2022/07/06 07:29:45;;;;;;;14.70;8.43;;;;;;;21.50;100.00;95054.84;5004632;28;20046;-69
2022/07/06 07:32:12;;;;;;;12.40;8.50;;;;;;;21.61;100.00;95041.38;5005827;28;20046;-69
2022/07/06 07:34:39;;;;;;;12.15;8.40;;;;;;;21.66;100.00;95039.44;5002472;28;20042;-69
2022/07/06 07:37:12;;;;;;;10.48;7.80;;;;;;;21.66;100.00;95041.28;5002746;28;20052;-71
2022/07/06 07:39:45;;;;;;;12.30;8.30;;;;;;;21.76;100.00;95035.78;5005975;28;20120;-69
2022/07/06 08:05:18;;;;;;;12.98;8.82;;;;;;;22.66;100.00;95033.28;4999465;28;20474;-69
2022/07/06 08:07:53;;;;;;;11.02;7.47;;;;;;;22.40;100.00;95032.31;5001681;28;20522;-68
2022/07/06 08:10:20;;;;;;;11.55;8.00;;;;;;;22.65;100.00;95028.25;5011816;28;20115;-69
2022/07/06 08:14:11;;;;;;;13.38;8.57;;;;;;;23.06;96.87;95037.91;5004054;28;20058;-70
2022/07/06 08:16:38;;;;;;;18.23;8.93;;;;;;;23.29;98.81;95030.69;4999707;28;20041;-69
2022/07/06 08:19:09;;;;;;;12.10;9.90;;;;;;;23.59;94.92;95033.59;5001893;28;20868;-69
2022/07/06 08:21:43;;;;;;;12.57;8.95;;;;;;;23.72;96.63;95042.56;4986200;28;20057;-70
2022/07/06 08:24:11;;;;;;;13.70;9.73;;;;;;;23.45;97.53;95045.13;5005141;28;20050;-68
2022/07/06 08:26:38;;;;;;;13.43;10.40;;;;;;;23.39;97.56;95035.72;5001410;28;20049;-67
2022/07/06 08:29:05;;;;;;;12.43;9.07;;;;;;;23.58;94.07;95032.78;5007005;28;20793;-67
2022/07/06 08:31:47;;;;;;;14.25;9.18;;;;;;;23.70;94.00;95029.56;4990774;28;20073;-70
2022/07/06 08:34:34;;;;;;;11.20;9.02;;;;;;;23.95;91.43;95029.94;5003143;28;20605;-70
2022/07/06 08:37:07;;;;;;;14.32;10.30;;;;;;;23.93;93.20;95026.81;5003477;28;20075;-70
2022/07/06 08:39:56;;;;;;;15.00;9.68;;;;;;;24.03;92.31;95031.84;5005116;28;20129;-69
2022/07/06 08:42:29;;;;;;;12.05;9.38;;;;;;;24.24;91.66;95026.69;5003247;28;20515;-69
2022/07/06 08:44:58;;;;;;;16.77;10.32;;;;;;;24.54;92.16;95030.31;5006346;28;20046;-67
2022/07/06 08:47:30;;;;;;;9.07;7.85;;;;;;;24.58;90.13;95025.91;5005209;28;20579;-67
2022/07/06 08:50:05;;;;;;;10.98;8.20;;;;;;;24.53;88.44;95030.63;5012049;28;20544;-66
2022/07/06 08:52:34;;;;;;;14.57;9.07;;;;;;;24.60;86.91;95034.38;5002482;28;20464;-68
2022/07/06 08:55:03;;;;;;;11.68;8.27;;;;;;;24.81;86.21;95028.38;5001337;28;20038;-68
2022/07/06 08:57:30;;;;;;;11.52;7.82;;;;;;;25.05;85.22;95021.72;5011319;28;20485;-68
2022/07/06 09:00:03;;;;;;;8.82;7.78;;;;;;;25.35;85.83;95033.25;4984542;28;20042;-68
2022/07/06 09:02:30;;;;;;;11.77;8.35;;;;;;;24.98;81.08;95028.34;5000067;28;20043;-68
2022/07/06 09:04:58;;;;;;;12.05;8.77;;;;;;;25.14;80.13;95035.84;4997432;28;20092;-68
2022/07/06 09:07:33;;;;;;;13.88;9.18;;;;;;;24.82;83.47;95023.84;5008457;28;20049;-68
2022/07/06 09:10:16;;;;;;;11.25;9.60;;;;;;;24.80;84.10;95021.50;4998580;28;20073;-68
2022/07/06 09:12:43;;;;;;;12.48;8.73;;;;;;;24.68;83.43;95024.03;4984652;28;20459;-68
2022/07/06 09:15:10;;;;;;;9.38;7.72;;;;;;;24.80;79.71;95021.50;4996662;28;20033;-68
2022/07/06 09:17:39;;;;;;;11.73;7.97;;;;;;;24.96;81.37;95030.53;4998808;28;20034;-68
2022/07/06 09:20:09;;;;;;;13.38;8.63;;;;;;;25.00;80.35;95026.13;4998252;28;20046;-69
2022/07/06 09:22:37;;;;;;;10.05;7.03;;;;;;;25.00;79.99;95031.47;4996453;28;20128;-68
2022/07/06 09:25:13;;;;;;;8.98;7.30;;;;;;;25.16;79.83;95033.63;4982220;28;20065;-69
2022/07/06 09:27:42;;;;;;;9.40;7.32;;;;;;;25.31;78.59;95024.34;5005313;28;20136;-69
2022/07/06 09:30:10;;;;;;;14.20;7.70;;;;;;;25.65;78.91;95017.28;5002905;28;20069;-69
2022/07/06 09:32:42;;;;;;;8.40;6.88;;;;;;;25.78;75.71;95026.16;5005266;28;20044;-68
2022/07/06 09:35:26;;;;;;;10.82;7.50;;;;;;;25.46;75.50;95031.81;5007788;28;20038;-68
2022/07/06 09:38:12;;;;;;;12.43;8.38;;;;;;;25.00;79.10;95042.13;5000650;28;20046;-67
2022/07/06 09:40:42;;;;;;;12.63;9.13;;;;;;;24.87;79.40;95043.09;4999537;28;20061;-67
2022/07/06 09:43:12;;;;;;;13.23;9.98;;;;;;;24.50;82.82;95033.88;5001177;28;20791;-68
2022/07/06 09:45:40;;;;;;;10.38;8.45;;;;;;;24.56;79.67;95016.66;5003206;28;20037;-67
2022/07/06 09:48:13;;;;;;;13.18;9.75;;;;;;;24.57;82.99;95018.25;4988955;28;20549;-67
2022/07/06 09:50:43;;;;;;;12.98;9.75;;;;;;;24.59;82.05;95022.13;5017448;28;20045;-67
2022/07/06 09:53:11;;;;;;;13.77;10.63;;;;;;;24.43;82.97;95016.50;5001131;28;20056;-68
2022/07/06 09:55:38;;;;;;;19.27;11.23;;;;;;;24.66;85.44;95015.56;5001802;28;20029;-67
2022/07/06 09:58:05;;;;;;;14.45;10.00;;;;;;;25.10;83.98;95008.25;4983346;28;20133;-67
2022/07/06 10:00:32;;;;;;;13.25;10.73;;;;;;;25.20;81.75;95007.91;5003972;28;20065;-67
2022/07/06 10:03:00;;;;;;;13.93;10.45;;;;;;;25.22;78.71;95016.34;5003135;28;20053;-68
2022/07/06 10:05:31;;;;;;;13.50;9.60;;;;;;;24.89;78.19;95030.25;4999979;28;20036;-68
2022/07/06 10:08:00;;;;;;;11.45;7.90;;;;;;;24.77;78.04;95022.13;4997146;28;20129;-68
2022/07/06 10:10:29;;;;;;;15.82;10.95;;;;;;;25.30;77.47;95028.91;5007159;28;20056;-68
2022/07/06 10:12:57;;;;;;;9.57;8.52;;;;;;;25.52;75.68;95024.41;5004328;28;20057;-67
2022/07/06 10:15:28;;;;;;;11.15;8.35;;;;;;;25.29;75.35;95022.00;5004897;28;20040;-68
2022/07/06 10:17:56;;;;;;;16.67;9.23;;;;;;;25.29;76.33;95021.22;5002432;28;20042;-68
2022/07/06 10:20:23;;;;;;;13.20;9.20;;;;;;;24.99;76.68;95019.25;5000528;28;20412;-68
2022/07/06 10:22:50;;;;;;;12.68;9.90;;;;;;;25.15;77.73;95013.41;5006737;28;20757;-68
2022/07/06 10:25:18;;;;;;;15.40;11.20;;;;;;;25.12;78.68;95022.03;4992302;28;20048;-68
2022/07/06 10:27:47;;;;;;;13.93;10.52;;;;;;;25.12;80.23;95000.69;5007518;28;20051;-68
2022/07/06 10:30:15;;;;;;;20.67;11.18;;;;;;;25.46;77.43;95020.34;4985199;28;20039;-68
2022/07/06 10:32:45;;;;;;;19.90;10.70;;;;;;;25.44;76.73;95011.91;5006808;28;20116;-68
2022/07/06 10:35:13;;;;;;;14.18;10.05;;;;;;;25.26;76.39;95014.63;5005133;28;20184;-68
2022/07/06 10:37:41;;;;;;;16.90;12.15;;;;;;;25.34;77.52;95003.16;4989715;28;20044;-67
2022/07/06 10:43:02;;;;;;;16.02;10.55;;;;;;;25.70;74.63;95009.09;5007043;28;20064;-67
2022/07/06 10:45:29;;;;;;;14.05;10.80;;;;;;;25.70;74.81;95023.22;5020022;28;20048;-68
2022/07/06 10:48:08;;;;;;;14.75;9.65;;;;;;;26.17;73.93;94994.84;5021075;28;20049;-67
2022/07/06 10:50:35;;;;;;;13.18;9.63;;;;;;;26.55;72.91;94996.56;5011865;28;20072;-67
2022/07/06 10:53:02;;;;;;;17.55;10.43;;;;;;;26.32;70.70;94997.69;5002765;28;20108;-67
2022/07/06 10:55:36;;;;;;;15.15;9.30;;;;;;;25.96;71.94;95006.28;5004406;28;20056;-68
2022/07/06 10:58:04;;;;;;;15.27;10.98;;;;;;;26.01;72.44;95008.78;5002752;28;20045;-68
2022/07/06 11:00:51;;;;;;;13.00;9.93;;;;;;;26.17;71.09;95005.53;5007134;28;20099;-68
2022/07/06 11:03:32;;;;;;;13.70;10.20;;;;;;;26.41;73.00;95000.28;5012941;28;20050;-68
2022/07/06 11:06:20;;;;;;;13.27;9.05;;;;;;;25.67;73.34;95010.53;4998924;28;20125;-68
2022/07/06 11:08:51;;;;;;;13.25;10.77;;;;;;;25.71;74.92;95008.00;4989156;28;20046;-70
2022/07/06 11:11:31;;;;;;;12.63;10.20;;;;;;;25.89;71.70;95011.34;4984508;28;20045;-68
2022/07/06 11:14:06;;;;;;;13.82;10.10;;;;;;;26.38;71.00;94989.47;4990272;28;20061;-68
2022/07/06 11:16:54;;;;;;;14.25;11.23;;;;;;;26.74;66.93;94996.88;4977341;28;20061;-67
2022/07/06 11:19:26;;;;;;;14.05;10.85;;;;;;;26.93;66.47;95003.59;4965599;28;20046;-67
2022/07/06 11:22:15;;;;;;;15.68;10.93;;;;;;;26.28;68.66;95001.34;4979900;28;20647;-68
2022/07/06 11:24:41;;;;;;;16.20;11.57;;;;;;;26.04;69.52;94997.47;4980615;28;20687;-68
2022/07/06 11:27:09;;;;;;;14.85;11.90;;;;;;;25.99;71.28;94994.97;4979727;28;20042;-68
2022/07/06 11:29:38;;;;;;;15.85;13.10;;;;;;;26.52;68.56;94980.09;4978440;28;20046;-69
2022/07/06 11:32:09;;;;;;;19.60;11.40;;;;;;;26.82;67.31;94982.66;4991628;28;20082;-69
2022/07/06 11:34:39;;;;;;;16.63;11.27;;;;;;;27.00;64.73;94982.47;4978276;28;20108;-69
2022/07/06 11:37:15;;;;;;;13.60;10.90;;;;;;;26.99;65.22;94994.25;4980849;28;20895;-69
2022/07/06 11:39:44;;;;;;;13.27;10.57;;;;;;;27.04;63.36;94994.03;4978209;28;20049;-69
2022/07/06 11:42:17;;;;;;;13.82;10.98;;;;;;;26.90;62.97;94983.66;4979010;28;20038;-69
2022/07/06 11:44:45;;;;;;;14.05;11.20;;;;;;;27.13;62.61;94986.69;4974632;28;20512;-69
2022/07/06 11:47:12;;;;;;;12.30;10.15;;;;;;;27.51;61.38;94985.63;4979647;28;20069;-69
2022/07/06 11:49:42;;;;;;;14.07;10.60;;;;;;;27.40;61.57;94984.50;4974457;28;20042;-69
2022/07/06 11:52:14;;;;;;;14.13;10.05;;;;;;;26.91;60.56;94987.13;4977917;28;20137;-69
2022/07/06 11:54:41;;;;;;;14.43;11.57;;;;;;;26.80;61.80;94968.84;4982070;28;20052;-69
2022/07/06 11:57:10;;;;;;;14.68;10.93;;;;;;;26.84;64.24;94985.75;4990633;28;20062;-69
2022/07/06 11:59:39;;;;;;;14.52;11.45;;;;;;;26.48;62.94;94971.16;4980565;28;20127;-69
2022/07/06 12:02:15;;;;;;;17.13;13.30;;;;;;;26.17;66.55;94965.50;4978415;28;20405;-69
2022/07/06 12:04:44;;;;;;;15.68;11.95;;;;;;;25.83;66.84;94970.72;4996855;28;20136;-69
2022/07/06 12:07:15;;;;;;;14.25;12.15;;;;;;;26.10;66.79;94961.44;4998656;28;20506;-69
2022/07/06 12:09:45;;;;;;;14.25;11.35;;;;;;;26.24;64.97;94963.09;5000191;28;20159;-69
2022/07/06 12:12:12;;;;;;;14.65;11.20;;;;;;;26.68;66.16;94966.13;5002015;28;20049;-69
2022/07/06 12:14:41;;;;;;;13.80;10.98;;;;;;;26.66;63.13;94963.03;5010644;28;20048;-69
2022/07/06 12:17:13;;;;;;;14.05;11.60;;;;;;;26.28;63.67;94969.31;5002822;28;20133;-69